createdAt,value
2023-05-21T00:01:25.799Z,22.20
2023-05-21T00:03:52.467Z,22.26
2023-05-21T00:06:20.908Z,22.16
2023-05-21T00:08:47.638Z,22.14
2023-05-21T00:11:14.143Z,22.11
2023-05-21T00:13:40.705Z,22.06
2023-05-21T00:16:07.741Z,22.03
2023-05-21T00:18:34.386Z,21.96
2023-05-21T00:21:01.661Z,22.01
2023-05-21T00:23:28.218Z,22.01
2023-05-21T00:25:54.740Z,22.01
2023-05-21T00:28:21.223Z,21.89
2023-05-21T00:30:47.734Z,21.91
2023-05-21T00:33:14.679Z,21.89
2023-05-21T00:35:41.544Z,21.86
2023-05-21T00:38:08.577Z,21.81
2023-05-21T00:40:35.889Z,21.76
2023-05-21T00:43:02.604Z,21.46
2023-05-21T00:45:29.602Z,21.44
2023-05-21T00:47:56.378Z,21.54
2023-05-21T00:50:23.490Z,21.49
2023-05-21T00:52:50.167Z,21.53
2023-05-21T00:55:16.812Z,21.44
2023-05-21T00:57:45.955Z,21.37
2023-05-21T01:00:14.377Z,21.43
2023-05-21T01:02:41.033Z,21.47
2023-05-21T01:05:07.983Z,21.50
2023-05-21T01:07:36.432Z,21.45
2023-05-21T01:10:04.217Z,21.39
2023-05-21T01:12:32.296Z,21.39
2023-05-21T01:15:00.617Z,21.32
2023-05-21T01:17:28.786Z,21.34
2023-05-21T01:19:59.919Z,21.32
2023-05-21T01:22:26.374Z,21.64
2023-05-21T01:24:55.784Z,21.30
2023-05-21T01:27:22.860Z,21.22
2023-05-21T01:29:50.131Z,21.18
2023-05-21T01:32:27.361Z,21.20
2023-05-21T01:39:10.002Z,20.96
2023-05-21T01:41:38.662Z,20.81
2023-05-21T01:44:07.028Z,20.72
2023-05-21T01:46:35.952Z,20.67
2023-05-21T01:49:03.095Z,20.54
2023-05-21T01:51:30.152Z,20.54
2023-05-21T01:53:56.642Z,20.47
2023-05-21T01:56:25.931Z,20.44
2023-05-21T01:58:52.678Z,20.31
2023-05-21T02:01:20.256Z,20.28
2023-05-21T02:03:46.899Z,20.22
2023-05-21T02:06:13.487Z,20.16
2023-05-21T02:08:40.289Z,20.02
2023-05-21T02:11:06.896Z,20.03
2023-05-21T02:13:33.824Z,19.97
2023-05-21T02:16:01.536Z,19.92
2023-05-21T02:18:29.272Z,19.89
2023-05-21T02:20:56.277Z,19.83
2023-05-21T02:23:22.826Z,19.82
2023-05-21T02:25:49.338Z,19.83
2023-05-21T02:28:15.900Z,19.78
2023-05-21T02:30:42.414Z,19.78
2023-05-21T02:33:09.180Z,19.72
2023-05-21T02:35:36.054Z,19.71
2023-05-21T02:38:03.064Z,19.68
2023-05-21T02:40:29.755Z,19.64
2023-05-21T02:42:56.267Z,19.59
2023-05-21T02:45:22.851Z,19.60
2023-05-21T02:47:49.515Z,19.59
2023-05-21T02:50:18.725Z,19.63
2023-05-21T02:52:52.482Z,19.61
2023-05-21T02:55:19.324Z,19.59
2023-05-21T02:57:45.832Z,19.55
2023-05-21T03:00:13.315Z,19.48
2023-05-21T03:02:41.458Z,19.58
2023-05-21T03:05:08.397Z,19.60
2023-05-21T03:07:34.891Z,19.57
2023-05-21T03:10:01.440Z,19.47
2023-05-21T03:12:27.934Z,19.47
2023-05-21T03:14:54.424Z,19.51
2023-05-21T03:17:22.210Z,19.56
2023-05-21T03:19:49.403Z,19.56
2023-05-21T03:22:16.258Z,19.49
2023-05-21T03:24:42.768Z,19.58
2023-05-21T03:27:09.708Z,19.70
2023-05-21T03:29:36.276Z,19.74
2023-05-21T03:32:03.437Z,19.82
2023-05-21T03:34:34.312Z,19.90
2023-05-21T03:37:00.878Z,19.96
2023-05-21T03:39:28.158Z,19.94
2023-05-21T03:41:55.955Z,20.03
2023-05-21T03:44:32.550Z,20.10
2023-05-21T03:47:15.335Z,20.18
2023-05-21T03:49:41.856Z,20.21
2023-05-21T03:52:08.729Z,20.16
2023-05-21T03:54:35.909Z,20.20
2023-05-21T03:57:06.148Z,20.28
2023-05-21T03:59:33.184Z,20.38
2023-05-21T04:02:00.327Z,20.46
2023-05-21T04:04:29.293Z,20.49
2023-05-21T04:06:56.012Z,20.62
2023-05-21T04:09:23.045Z,20.74
2023-05-21T04:11:51.763Z,20.80
2023-05-21T04:14:18.305Z,20.83
2023-05-21T04:16:44.904Z,20.86
2023-05-21T04:19:11.484Z,20.97
2023-05-21T04:21:38.094Z,21.03
2023-05-21T04:24:05.429Z,21.16
2023-05-21T04:27:01.251Z,21.20
2023-05-21T04:29:30.033Z,21.30
2023-05-21T04:31:56.911Z,21.34
2023-05-21T04:34:23.642Z,21.43
2023-05-21T04:36:51.921Z,21.48
2023-05-21T04:39:18.453Z,21.70
2023-05-21T04:41:45.147Z,21.54
2023-05-21T04:44:14.704Z,21.52
2023-05-21T04:46:42.934Z,21.60
2023-05-21T04:49:10.139Z,21.76
2023-05-21T04:51:37.822Z,21.91
2023-05-21T04:54:04.417Z,22.23
2023-05-21T04:56:31.861Z,22.31
2023-05-21T04:58:58.909Z,22.44
2023-05-21T05:01:27.204Z,22.20
2023-05-21T05:03:54.033Z,22.07
2023-05-21T05:06:21.413Z,22.25
2023-05-21T05:08:48.332Z,22.33
2023-05-21T05:11:15.968Z,22.17
2023-05-21T05:13:42.488Z,22.28
2023-05-21T05:16:09.115Z,22.36
2023-05-21T05:18:36.445Z,22.53
2023-05-21T05:21:03.141Z,22.56
2023-05-21T05:23:30.184Z,22.96
2023-05-21T05:25:56.726Z,23.17
2023-05-21T05:28:23.270Z,23.22
2023-05-21T05:30:49.946Z,23.09
2023-05-21T05:33:21.930Z,23.04
2023-05-21T05:35:49.234Z,23.26
2023-05-21T05:38:17.028Z,22.93
2023-05-21T05:40:43.584Z,23.02
2023-05-21T05:43:10.109Z,23.32
2023-05-21T05:45:36.969Z,22.97
2023-05-21T05:48:09.530Z,23.14
2023-05-21T05:50:36.198Z,23.38
2023-05-21T05:53:02.933Z,23.44
2023-05-21T05:55:29.668Z,23.10
2023-05-21T05:57:56.196Z,23.41
2023-05-21T06:00:23.087Z,23.36
2023-05-21T06:02:50.863Z,23.42
2023-05-21T06:05:17.597Z,23.44
2023-05-21T06:07:44.291Z,23.31
2023-05-21T06:10:10.867Z,23.33
2023-05-21T06:12:37.382Z,23.58
2023-05-21T06:15:04.986Z,23.68
2023-05-21T06:17:31.830Z,23.75
2023-05-21T06:19:58.381Z,23.68
2023-05-21T06:22:26.545Z,23.36
2023-05-21T06:24:53.146Z,23.34
2023-05-21T06:27:20.530Z,23.53
2023-05-21T06:29:47.996Z,23.68
2023-05-21T06:32:14.526Z,23.67
2023-05-21T06:34:41.627Z,23.66
2023-05-21T06:37:08.141Z,23.71
2023-05-21T06:39:34.636Z,23.78
2023-05-21T06:42:01.793Z,23.97
2023-05-21T06:44:44.042Z,24.16
2023-05-21T06:47:16.770Z,24.37
2023-05-21T06:49:43.733Z,24.49
2023-05-21T06:52:11.158Z,24.24
2023-05-21T06:54:38.231Z,24.43
2023-05-21T06:57:05.984Z,24.45
2023-05-21T06:59:32.593Z,24.41
2023-05-21T07:01:59.596Z,24.79
2023-05-21T07:04:26.520Z,24.50
2023-05-21T07:06:53.535Z,25.07
2023-05-21T07:09:20.141Z,25.23
2023-05-21T07:11:47.796Z,25.32
2023-05-21T07:14:16.272Z,25.18
2023-05-21T07:16:42.835Z,25.17
2023-05-21T07:19:09.591Z,25.49
2023-05-21T07:21:36.217Z,25.67
2023-05-21T07:24:02.707Z,25.74
2023-05-21T07:26:29.250Z,25.69
2023-05-21T07:28:55.755Z,25.67
2023-05-21T07:31:22.721Z,25.96
2023-05-21T07:33:51.605Z,26.08
2023-05-21T07:36:21.718Z,26.18
2023-05-21T07:38:48.208Z,26.06
2023-05-21T07:41:16.439Z,26.13
2023-05-21T07:43:44.731Z,26.19
2023-05-21T07:46:11.745Z,26.17
2023-05-21T07:48:38.504Z,26.29
2023-05-21T07:51:05.421Z,26.43
2023-05-21T07:53:33.258Z,26.74
2023-05-21T07:56:03.284Z,26.52
2023-05-21T07:58:31.054Z,26.68
2023-05-21T08:00:58.441Z,26.84
2023-05-21T08:03:26.690Z,26.90
2023-05-21T08:05:53.412Z,26.86
2023-05-21T08:08:20.184Z,27.13
2023-05-21T08:10:47.798Z,27.23
2023-05-21T08:13:15.833Z,27.32
2023-05-21T08:15:42.728Z,27.13
2023-05-21T08:18:09.867Z,27.17
2023-05-21T08:20:36.549Z,27.15
2023-05-21T08:23:03.127Z,27.38
2023-05-21T08:25:37.331Z,27.47
2023-05-21T08:28:04.665Z,27.50
2023-05-21T08:30:31.321Z,27.74
2023-05-21T08:32:58.747Z,27.84
2023-05-21T08:35:26.794Z,28.12
2023-05-21T08:37:57.863Z,28.22
2023-05-21T08:40:47.858Z,28.26
2023-05-21T08:43:16.447Z,28.30
2023-05-21T08:45:45.863Z,28.66
2023-05-21T08:48:13.108Z,28.85
2023-05-21T08:50:41.252Z,28.89
2023-05-21T08:53:23.941Z,29.03
2023-05-21T08:55:58.632Z,29.23
2023-05-21T08:58:37.258Z,29.12
2023-05-21T09:01:04.910Z,29.00
2023-05-21T09:03:33.091Z,29.34
2023-05-21T09:06:00.184Z,29.48
2023-05-21T09:08:32.252Z,29.38
2023-05-21T09:11:05.094Z,29.72
2023-05-21T09:13:39.132Z,30.04
2023-05-21T09:16:12.211Z,30.00
2023-05-21T09:18:38.721Z,29.88
2023-05-21T09:21:28.432Z,30.10
2023-05-21T09:23:59.855Z,30.08
2023-05-21T09:26:26.596Z,30.16
2023-05-21T09:28:57.944Z,30.35
2023-05-21T09:31:24.551Z,30.62
2023-05-21T09:33:51.212Z,30.68
2023-05-21T09:36:20.347Z,31.16
2023-05-21T09:38:51.778Z,31.24
2023-05-21T09:41:21.927Z,31.25
2023-05-21T09:43:49.265Z,31.59
2023-05-21T09:46:16.381Z,31.70
2023-05-21T09:48:43.658Z,32.01
2023-05-21T09:51:18.375Z,32.13
2023-05-21T09:53:48.868Z,32.30
2023-05-21T09:56:15.578Z,32.36
2023-05-21T09:58:42.397Z,32.60
2023-05-21T10:01:10.713Z,32.76
2023-05-21T10:03:39.524Z,33.18
2023-05-21T10:06:08.061Z,33.48
2023-05-21T10:08:37.452Z,33.57
2023-05-21T10:11:05.879Z,33.10
2023-05-21T10:13:34.433Z,33.07
2023-05-21T10:16:03.139Z,32.76
2023-05-21T10:18:30.972Z,32.89
2023-05-21T10:20:58.006Z,32.88
2023-05-21T10:23:24.908Z,33.01
2023-05-21T10:25:52.191Z,33.01
2023-05-21T10:28:19.718Z,32.75
2023-05-21T10:30:46.414Z,32.79
2023-05-21T10:33:16.288Z,32.87
2023-05-21T10:35:42.981Z,32.57
2023-05-21T10:38:09.516Z,31.91
2023-05-21T10:40:36.462Z,32.03
2023-05-21T10:43:35.261Z,31.97
2023-05-21T10:46:37.157Z,32.22
2023-05-21T10:49:13.066Z,32.23
2023-05-21T10:52:06.325Z,32.26
2023-05-21T10:54:48.744Z,32.59
2023-05-21T10:57:42.721Z,32.20
2023-05-21T11:00:10.963Z,32.57
2023-05-21T11:02:38.103Z,32.49
2023-05-21T11:05:05.013Z,32.56
2023-05-21T11:07:51.428Z,32.55
2023-05-21T11:10:30.185Z,32.93
2023-05-21T11:13:13.657Z,33.37
2023-05-21T11:15:58.277Z,33.65
2023-05-21T11:18:30.518Z,33.56
2023-05-21T11:21:10.179Z,33.29
2023-05-21T11:24:02.688Z,33.23
2023-05-21T11:26:47.594Z,33.06
2023-05-21T11:29:14.802Z,32.99
2023-05-21T11:31:48.917Z,33.54
2023-05-21T11:34:19.029Z,33.51
2023-05-21T11:36:47.118Z,33.67
2023-05-21T11:39:23.880Z,33.67
2023-05-21T11:42:03.808Z,33.80
2023-05-21T11:44:47.832Z,33.50
2023-05-21T11:47:21.020Z,33.73
2023-05-21T11:49:48.108Z,33.77
2023-05-21T11:52:14.781Z,33.78
2023-05-21T11:54:46.215Z,34.01
2023-05-21T11:57:17.224Z,34.17
2023-05-21T11:59:44.435Z,33.95
2023-05-21T12:02:16.514Z,34.06
2023-05-21T12:04:43.145Z,33.83
2023-05-21T12:07:10.888Z,34.35
2023-05-21T12:09:58.936Z,34.25
2023-05-21T12:12:27.220Z,34.22
2023-05-21T12:14:58.196Z,34.25
2023-05-21T12:17:26.198Z,34.28
2023-05-21T12:19:54.290Z,34.41
2023-05-21T12:22:21.327Z,34.36
2023-05-21T12:24:48.939Z,34.44
2023-05-21T12:27:16.631Z,34.56
2023-05-21T12:29:44.425Z,34.72
2023-05-21T12:32:12.905Z,34.92
2023-05-21T12:34:52.650Z,34.87
2023-05-21T12:37:26.034Z,34.69
2023-05-21T12:39:56.264Z,34.52
2023-05-21T12:42:27.672Z,34.34
2023-05-21T12:44:54.440Z,33.76
2023-05-21T12:47:23.730Z,33.78
2023-05-21T12:49:53.084Z,33.62
2023-05-21T12:52:21.557Z,33.71
2023-05-21T12:54:52.244Z,33.93
2023-05-21T12:57:19.382Z,34.22
2023-05-21T12:59:59.230Z,34.14
2023-05-21T13:02:29.391Z,34.10
2023-05-21T13:04:59.751Z,34.15
2023-05-21T13:07:28.321Z,34.12
2023-05-21T13:09:55.557Z,33.95
2023-05-21T13:12:26.617Z,34.03
2023-05-21T13:14:54.508Z,34.12
2023-05-21T13:17:21.975Z,34.13
2023-05-21T13:20:12.125Z,34.25
2023-05-21T13:22:49.227Z,34.08
2023-05-21T13:25:21.222Z,34.01
2023-05-21T13:27:51.768Z,33.96
2023-05-21T13:30:19.115Z,33.88
2023-05-21T13:32:45.935Z,33.75
2023-05-21T13:35:12.696Z,33.67
2023-05-21T13:37:40.745Z,33.90
2023-05-21T13:40:11.704Z,33.86
2023-05-21T13:42:38.764Z,33.62
2023-05-21T13:45:10.740Z,33.44
2023-05-21T13:47:40.162Z,33.67
2023-05-21T13:50:08.049Z,33.69
2023-05-21T13:52:34.708Z,33.85
2023-05-21T13:55:01.343Z,33.76
2023-05-21T13:57:30.603Z,33.82
2023-05-21T13:59:57.772Z,33.80
2023-05-21T14:02:24.350Z,33.86
2023-05-21T14:04:50.981Z,33.91
2023-05-21T14:07:17.480Z,33.66
2023-05-21T14:09:44.051Z,33.18
2023-05-21T14:12:10.574Z,33.24
2023-05-21T14:14:37.849Z,33.37
2023-05-21T14:17:04.646Z,33.04
2023-05-21T14:19:31.500Z,33.19
2023-05-21T14:21:59.795Z,33.21
2023-05-21T14:24:26.512Z,33.44
2023-05-21T14:26:53.028Z,33.05
2023-05-21T14:29:19.561Z,33.13
2023-05-21T14:31:46.328Z,32.93
2023-05-21T14:34:12.886Z,33.23
2023-05-21T14:36:39.508Z,33.22
2023-05-21T14:39:06.190Z,33.26
2023-05-21T14:41:32.766Z,33.31
2023-05-21T14:43:59.254Z,33.31
2023-05-21T14:46:25.946Z,33.17
2023-05-21T14:48:52.782Z,33.12
2023-05-21T14:51:19.326Z,33.07
2023-05-21T14:53:45.824Z,33.07
2023-05-21T14:56:12.328Z,33.05
2023-05-21T14:58:38.838Z,32.95
2023-05-21T15:01:05.557Z,33.02
2023-05-21T15:03:32.141Z,33.22
2023-05-21T15:05:58.839Z,32.95
2023-05-21T15:08:25.517Z,33.06
2023-05-21T15:10:52.042Z,32.89
2023-05-21T15:13:18.605Z,32.83
2023-05-21T15:15:45.162Z,32.80
2023-05-21T15:18:11.861Z,32.93
2023-05-21T15:20:38.349Z,32.93
2023-05-21T15:23:16.084Z,32.84
2023-05-21T15:25:43.578Z,33.05
2023-05-21T15:28:11.734Z,32.87
2023-05-21T15:30:38.249Z,32.89
2023-05-21T15:33:04.770Z,32.82
2023-05-21T15:35:31.518Z,32.71
2023-05-21T15:37:58.111Z,32.61
2023-05-21T15:40:26.907Z,32.62
2023-05-21T15:42:53.882Z,32.55
2023-05-21T15:45:20.455Z,32.75
2023-05-21T15:47:46.998Z,32.82
2023-05-21T15:50:13.553Z,32.75
2023-05-21T15:52:41.592Z,32.91
2023-05-21T15:55:08.493Z,32.92
2023-05-21T15:57:35.032Z,32.71
2023-05-21T16:00:01.548Z,32.55
2023-05-21T16:02:28.263Z,32.52
2023-05-21T16:04:54.960Z,32.72
2023-05-21T16:07:23.309Z,32.53
2023-05-21T16:09:49.864Z,32.44
2023-05-21T16:12:16.394Z,32.36
2023-05-21T16:14:42.924Z,32.38
2023-05-21T16:17:11.124Z,32.29
2023-05-21T16:19:38.691Z,32.22
2023-05-21T16:22:05.213Z,32.22
2023-05-21T16:24:31.789Z,32.17
2023-05-21T16:26:58.366Z,32.35
2023-05-21T16:29:24.900Z,32.43
2023-05-21T16:31:51.437Z,32.27
2023-05-21T16:34:17.993Z,32.35
2023-05-21T16:36:44.490Z,32.23
2023-05-21T16:39:11.127Z,32.35
2023-05-21T16:41:37.625Z,32.00
2023-05-21T16:44:04.196Z,32.12
2023-05-21T16:46:30.791Z,32.16
2023-05-21T16:48:57.356Z,32.01
2023-05-21T16:51:23.905Z,32.05
2023-05-21T16:53:50.457Z,32.01
2023-05-21T16:56:17.007Z,31.99
2023-05-21T16:58:43.554Z,31.89
2023-05-21T17:01:10.150Z,31.88
2023-05-21T17:03:36.834Z,31.96
2023-05-21T17:06:03.517Z,31.83
2023-05-21T17:08:30.006Z,31.69
2023-05-21T17:10:56.570Z,31.46
2023-05-21T17:13:23.392Z,31.36
2023-05-21T17:15:53.040Z,31.46
2023-05-21T17:18:19.593Z,31.36
2023-05-21T17:20:46.111Z,31.32
2023-05-21T17:23:12.756Z,31.46
2023-05-21T17:25:40.065Z,31.44
2023-05-21T17:28:07.005Z,31.50
2023-05-21T17:30:33.529Z,31.31
2023-05-21T17:33:02.168Z,30.95
2023-05-21T17:35:29.130Z,31.19
2023-05-21T17:37:55.653Z,31.34
2023-05-21T17:40:24.462Z,31.33
2023-05-21T17:42:52.075Z,31.35
2023-05-21T17:45:18.936Z,31.24
2023-05-21T17:47:45.549Z,31.02
2023-05-21T17:50:12.217Z,30.90
2023-05-21T17:52:38.706Z,31.04
2023-05-21T17:55:05.669Z,30.89
2023-05-21T17:57:32.160Z,31.06
2023-05-21T17:59:58.728Z,31.08
2023-05-21T18:02:25.987Z,30.90
2023-05-21T18:04:52.584Z,30.83
2023-05-21T18:07:19.135Z,30.79
2023-05-21T18:09:45.647Z,30.71
2023-05-21T18:12:12.198Z,30.65
2023-05-21T18:14:38.676Z,30.77
2023-05-21T18:17:05.912Z,30.77
2023-05-21T18:19:32.677Z,30.69
2023-05-21T18:21:59.243Z,30.64
2023-05-21T18:24:25.792Z,30.54
2023-05-21T18:26:52.309Z,30.51
2023-05-21T18:29:18.871Z,30.41
2023-05-21T18:31:45.587Z,30.57
2023-05-21T18:34:12.271Z,30.32
2023-05-21T18:36:39.081Z,30.34
2023-05-21T18:39:06.794Z,30.33
2023-05-21T18:41:33.495Z,30.27
2023-05-21T18:44:01.752Z,30.21
2023-05-21T18:46:31.733Z,30.12
2023-05-21T18:48:59.506Z,30.23
2023-05-21T18:51:26.022Z,30.07
2023-05-21T18:53:52.561Z,29.98
2023-05-21T18:56:19.102Z,29.99
2023-05-21T18:58:45.702Z,29.95
2023-05-21T19:01:12.388Z,29.91
2023-05-21T19:03:39.057Z,29.94
2023-05-21T19:06:05.645Z,29.79
2023-05-21T19:08:32.133Z,29.68
2023-05-21T19:10:58.650Z,29.71
2023-05-21T19:13:25.140Z,29.61
2023-05-21T19:15:52.125Z,29.62
2023-05-21T19:18:18.676Z,29.61
2023-05-21T19:20:45.231Z,29.54
2023-05-21T19:23:11.732Z,29.57
2023-05-21T19:25:38.533Z,29.59
2023-05-21T19:28:05.093Z,29.45
2023-05-21T19:30:33.556Z,29.43
2023-05-21T19:33:00.195Z,29.34
2023-05-21T19:35:26.722Z,29.33
2023-05-21T19:37:54.770Z,29.35
2023-05-21T19:40:22.581Z,29.35
2023-05-21T19:42:49.100Z,29.20
2023-05-21T19:45:15.680Z,29.20
2023-05-21T19:47:43.299Z,29.20
2023-05-21T19:50:10.621Z,29.20
2023-05-21T19:52:37.996Z,29.20
2023-05-21T19:55:06.170Z,29.20
2023-05-21T19:57:32.770Z,29.10
2023-05-21T19:59:59.469Z,28.99
2023-05-21T20:02:26.579Z,28.92
2023-05-21T20:04:56.676Z,28.74
2023-05-21T20:07:23.561Z,28.71
2023-05-21T20:09:50.420Z,28.76
2023-05-21T20:12:17.130Z,28.71
2023-05-21T20:14:46.746Z,28.59
2023-05-21T20:17:14.315Z,28.60
2023-05-21T20:19:41.076Z,28.65
2023-05-21T20:22:07.668Z,28.67
2023-05-21T20:24:34.200Z,28.49
2023-05-21T20:27:01.664Z,28.63
2023-05-21T20:29:28.772Z,28.55
2023-05-21T20:31:55.369Z,28.40
2023-05-21T20:34:21.985Z,28.52
2023-05-21T20:36:48.614Z,28.35
2023-05-21T20:39:15.395Z,28.45
2023-05-21T20:41:44.679Z,28.45
2023-05-21T20:44:11.796Z,28.48
2023-05-21T20:46:38.875Z,28.50
2023-05-21T20:49:05.854Z,28.55
2023-05-21T20:51:32.548Z,28.52
2023-05-21T20:53:59.280Z,28.49
2023-05-21T20:56:40.784Z,28.62
2023-05-21T20:59:10.952Z,28.60
2023-05-21T21:01:38.399Z,28.55
2023-05-21T21:04:05.153Z,28.58
2023-05-21T21:06:31.883Z,28.57
2023-05-21T21:08:58.582Z,28.33
2023-05-21T21:11:25.165Z,28.45
2023-05-21T21:13:51.934Z,28.41
2023-05-21T21:16:18.610Z,28.39
2023-05-21T21:18:46.871Z,28.35
2023-05-21T21:21:13.583Z,28.16
2023-05-21T21:23:40.186Z,28.39
2023-05-21T21:26:07.113Z,28.27
2023-05-21T21:28:33.781Z,28.20
2023-05-21T21:31:00.523Z,28.15
2023-05-21T21:33:27.220Z,28.13
2023-05-21T21:35:53.777Z,28.07
2023-05-21T21:38:20.312Z,27.96
2023-05-21T21:40:46.811Z,28.02
2023-05-21T21:43:13.365Z,28.11
2023-05-21T21:45:39.885Z,27.91
2023-05-21T21:48:06.717Z,27.90
2023-05-21T21:50:33.288Z,27.80
2023-05-21T21:52:59.888Z,27.64
2023-05-21T21:55:26.426Z,27.84
2023-05-21T21:57:52.949Z,27.85
2023-05-21T22:00:19.647Z,27.76
2023-05-21T22:02:49.009Z,27.64
2023-05-21T22:05:15.640Z,27.51
2023-05-21T22:07:48.185Z,27.70
2023-05-21T22:10:16.082Z,27.57
2023-05-21T22:12:44.066Z,27.65
2023-05-21T22:15:37.127Z,27.68
2023-05-21T22:18:03.846Z,27.52
2023-05-21T22:20:30.394Z,27.53
2023-05-21T22:22:57.484Z,27.37
2023-05-21T22:25:24.058Z,27.44
2023-05-21T22:27:51.071Z,27.54
2023-05-21T22:30:18.693Z,27.30
2023-05-21T22:32:47.180Z,27.24
2023-05-21T22:35:13.752Z,27.18
2023-05-21T22:37:40.274Z,27.20
2023-05-21T22:40:07.504Z,27.08
2023-05-21T22:42:35.050Z,27.19
2023-05-21T22:45:01.897Z,27.13
2023-05-21T22:47:28.407Z,27.12
2023-05-21T22:49:54.915Z,26.91
2023-05-21T22:52:21.911Z,26.87
2023-05-21T22:54:48.839Z,26.76
2023-05-21T22:57:15.414Z,26.75
2023-05-21T22:59:41.906Z,26.69
2023-05-21T23:02:08.586Z,26.63
2023-05-21T23:04:43.372Z,26.67
2023-05-21T23:07:11.257Z,26.65
2023-05-21T23:09:37.768Z,26.64
2023-05-21T23:12:04.575Z,26.68
2023-05-21T23:14:31.099Z,26.55
2023-05-21T23:17:01.645Z,26.64
2023-05-21T23:19:29.240Z,26.64
2023-05-21T23:21:56.123Z,26.35
2023-05-21T23:24:22.809Z,26.40
2023-05-21T23:26:49.385Z,26.44
2023-05-21T23:29:15.880Z,26.39
2023-05-21T23:31:42.591Z,26.42
2023-05-21T23:34:09.571Z,26.37
2023-05-21T23:36:36.147Z,26.22
2023-05-21T23:39:02.869Z,26.38
2023-05-21T23:41:29.477Z,26.42
